< < Back
Terminal Aerodrome Forecast


Current Version              Previous Versions:   1  2  3  4  5  6  7  8  9  

Terminal Aerodrome Forecast

364
FTUS44 KMRX 271735
TAFCHA
TAF
KCHA 271735Z 2718/2818 24012G20KT P6SM SCT045 SCT200
     FM280000 23008KT P6SM VCTS SCT035 BKN050CB
     FM280200 26010G20KT 4SM -TSRA BR SCT020 OVC035CB
     FM280500 29005KT P6SM BKN060
     FM280900 30003KT 6SM BR FEW015
     FM281300 32010KT P6SM FEW035 SCT250=

Latest METAR

361
SAUS80 KWBC 280600 RRD
MTRCHA
METAR KCHA 280553Z AUTO 36015G25KT 10SM VCTS BKN027 BKN036 27/19 A2994
RMK AO2 LTG DSNT W-NE SLP126 T02670189 10322 20267 53006
$


USA.gov is the U.S. government's official web portal to all federal, state and local government web resources and services.